Terminal Aerodrome Forecast
Issued by NWS

Home | Current Version | Previous Version | Text Only | Print | Product List | Glossary On
Versions: 1 2 3 4 5 6 7 8 9 10 11 12 13 14 15 16 17 18 19 20 21 22 23 24 25 26 27 28 29 30 31 32 33 34 35 36 37 38 39 40 41 42
000
FTUS41 KGYX 161417 AAA
TAFRKD
TAF AMD
KRKD 161417Z 1614/1712 20009KT P6SM BKN200
     FM161600 22007G15KT P6SM VCSH BKN050
     FM170500 34003KT 2SM BR SCT003 OVC015
     AMD LTD TO CLD VIS AND WIND=

USA.gov is the U.S. government's official web portal to all federal, state and local government web resources and services.